createdAt,value
2018-09-26T00:02:27.066Z,3.83
2018-09-26T00:04:57.423Z,4.13
2018-09-26T00:07:28.422Z,3.47
2018-09-26T00:09:58.103Z,3.60
2018-09-26T00:12:29.969Z,3.70
2018-09-26T00:14:59.634Z,3.77
2018-09-26T00:17:29.638Z,3.00
2018-09-26T00:20:00.297Z,3.40
2018-09-26T00:22:30.974Z,3.83
2018-09-26T00:25:01.359Z,3.93
2018-09-26T00:27:32.368Z,3.67
2018-09-26T00:30:03.690Z,3.57
2018-09-26T00:32:33.615Z,3.30
2018-09-26T00:35:03.743Z,3.30
2018-09-26T00:37:34.188Z,3.47
2018-09-26T00:40:04.678Z,2.83
2018-09-26T00:42:37.982Z,3.07
2018-09-26T00:45:09.176Z,3.13
2018-09-26T00:47:39.040Z,3.40
2018-09-26T00:50:09.716Z,3.33
2018-09-26T00:52:41.821Z,2.60
2018-09-26T00:55:11.775Z,3.20
2018-09-26T00:57:41.914Z,3.47
2018-09-26T01:00:13.995Z,3.10
2018-09-26T01:02:46.008Z,3.40
2018-09-26T01:05:17.466Z,2.93
2018-09-26T01:07:48.818Z,2.63
2018-09-26T01:10:19.258Z,3.40
2018-09-26T01:12:50.484Z,3.83
2018-09-26T01:15:20.338Z,2.93
2018-09-26T01:17:52.377Z,2.73
2018-09-26T01:20:23.980Z,3.30
2018-09-26T01:22:54.468Z,3.10
2018-09-26T01:25:24.656Z,3.00
2018-09-26T01:27:54.590Z,3.77
2018-09-26T01:30:24.756Z,3.13
2018-09-26T01:32:56.612Z,3.70
2018-09-26T01:35:29.442Z,3.10
2018-09-26T01:38:01.100Z,3.50
2018-09-26T01:40:30.477Z,3.43
2018-09-26T01:43:00.240Z,3.40
2018-09-26T01:45:30.655Z,3.00
2018-09-26T01:48:02.328Z,3.27
2018-09-26T01:50:33.397Z,3.37
2018-09-26T01:53:03.840Z,3.50
2018-09-26T01:55:36.788Z,3.50
2018-09-26T01:58:09.306Z,3.00
2018-09-26T02:00:39.284Z,3.37
2018-09-26T02:03:10.010Z,3.27
2018-09-26T02:05:43.811Z,2.83
2018-09-26T02:08:19.734Z,3.33
2018-09-26T02:10:52.604Z,3.30
2018-09-26T02:13:25.279Z,3.60
2018-09-26T02:15:58.400Z,3.27
2018-09-26T02:18:31.969Z,3.10
2018-09-26T02:21:02.458Z,2.87
2018-09-26T02:23:34.479Z,3.40
2018-09-26T02:26:09.146Z,3.00
2018-09-26T02:28:40.392Z,2.77
2018-09-26T02:31:11.986Z,3.10
2018-09-26T02:33:42.490Z,2.87
2018-09-26T02:36:13.191Z,2.50
2018-09-26T02:38:48.229Z,2.83
2018-09-26T02:41:18.450Z,3.13
2018-09-26T02:43:48.998Z,2.67
2018-09-26T02:46:25.777Z,2.37
2018-09-26T02:49:04.758Z,2.93
2018-09-26T02:51:41.246Z,2.80
2018-09-26T02:54:11.648Z,3.10
2018-09-26T02:56:42.336Z,2.23
2018-09-26T02:59:12.384Z,3.53
2018-09-26T03:01:44.887Z,2.43
2018-09-26T03:04:20.604Z,2.40
2018-09-26T03:06:51.587Z,2.57
2018-09-26T03:09:22.287Z,2.57
2018-09-26T03:11:53.200Z,2.60
2018-09-26T03:14:24.060Z,2.40
2018-09-26T03:16:56.111Z,2.47
2018-09-26T03:19:26.967Z,2.30
2018-09-26T03:21:56.684Z,2.60
2018-09-26T03:24:29.643Z,2.33
2018-09-26T03:27:00.540Z,2.53
2018-09-26T03:29:33.326Z,2.37
2018-09-26T03:32:06.126Z,1.90
2018-09-26T03:34:39.827Z,2.77
2018-09-26T03:37:12.412Z,2.60
2018-09-26T03:39:42.860Z,2.70
2018-09-26T03:42:16.166Z,2.43
2018-09-26T03:44:49.986Z,2.30
2018-09-26T03:47:25.033Z,2.70
2018-09-26T03:49:57.576Z,2.53
2018-09-26T03:52:27.181Z,2.90
2018-09-26T03:54:57.095Z,2.60
2018-09-26T03:57:27.256Z,2.37
2018-09-26T03:59:56.888Z,2.53
2018-09-26T04:02:26.876Z,2.50
2018-09-26T04:04:57.136Z,2.57
2018-09-26T04:07:27.136Z,2.53
2018-09-26T04:09:58.679Z,2.60
2018-09-26T04:12:28.605Z,2.80
2018-09-26T04:14:58.460Z,3.20
2018-09-26T04:17:28.633Z,2.80
2018-09-26T04:19:58.477Z,2.47
2018-09-26T04:22:30.473Z,2.93
2018-09-26T04:24:59.980Z,3.10
2018-09-26T04:27:30.395Z,2.97
2018-09-26T04:30:00.514Z,2.53
2018-09-26T04:32:31.261Z,2.90
2018-09-26T04:35:00.865Z,3.30
2018-09-26T04:37:30.980Z,2.90
2018-09-26T04:40:00.404Z,3.10
2018-09-26T04:42:30.582Z,2.80
2018-09-26T04:45:00.147Z,3.00
2018-09-26T04:47:30.424Z,2.93
2018-09-26T04:50:00.995Z,3.47
2018-09-26T04:52:31.449Z,2.70
2018-09-26T04:55:02.451Z,3.10
2018-09-26T04:57:33.082Z,2.90
2018-09-26T05:00:04.577Z,2.37
2018-09-26T05:02:35.039Z,2.70
2018-09-26T05:05:05.283Z,3.70
2018-09-26T05:07:36.747Z,2.90
2018-09-26T05:10:07.475Z,3.40
2018-09-26T05:12:38.098Z,2.70
2018-09-26T05:15:07.649Z,2.80
2018-09-26T05:17:37.715Z,2.27
2018-09-26T05:20:07.743Z,2.60
2018-09-26T05:22:38.479Z,3.03
2018-09-26T05:25:08.385Z,2.83
2018-09-26T05:27:39.115Z,2.93
2018-09-26T05:30:11.017Z,2.90
2018-09-26T05:32:41.099Z,2.80
2018-09-26T05:35:13.373Z,3.40
2018-09-26T05:37:43.837Z,2.70
2018-09-26T05:40:14.682Z,2.90
2018-09-26T05:42:45.555Z,2.90
2018-09-26T05:45:16.036Z,3.33
2018-09-26T05:47:46.174Z,2.93
2018-09-26T05:50:16.279Z,2.50
2018-09-26T05:52:46.529Z,2.70
2018-09-26T05:55:17.343Z,2.90
2018-09-26T05:57:48.057Z,3.40
2018-09-26T06:00:18.516Z,3.20
2018-09-26T06:02:50.159Z,3.33
2018-09-26T06:05:22.562Z,3.47
2018-09-26T06:07:53.353Z,3.07
2018-09-26T06:10:23.853Z,3.00
2018-09-26T06:12:56.213Z,2.97
2018-09-26T06:15:26.663Z,3.50
2018-09-26T06:17:57.588Z,3.63
2018-09-26T06:20:29.675Z,3.43
2018-09-26T06:22:59.615Z,3.40
2018-09-26T06:25:30.891Z,3.10
2018-09-26T06:28:03.547Z,3.17
2018-09-26T06:30:33.653Z,3.80
2018-09-26T06:33:04.571Z,3.50
2018-09-26T06:35:36.365Z,3.40
2018-09-26T06:38:06.519Z,2.93
2018-09-26T06:40:37.228Z,3.20
2018-09-26T06:43:07.863Z,3.40
2018-09-26T06:45:42.396Z,3.50
2018-09-26T06:48:12.889Z,3.57
2018-09-26T06:50:44.710Z,3.50
2018-09-26T06:53:15.749Z,3.60
2018-09-26T06:55:46.229Z,3.30
2018-09-26T06:58:17.170Z,3.10
2018-09-26T07:00:51.129Z,3.30
2018-09-26T07:03:21.316Z,3.30
2018-09-26T07:05:52.520Z,3.43
2018-09-26T07:08:25.445Z,3.00
2018-09-26T07:10:56.366Z,3.57
2018-09-26T07:13:26.772Z,3.40
2018-09-26T07:15:58.826Z,3.43
2018-09-26T07:18:31.755Z,3.93
2018-09-26T07:21:03.548Z,3.47
2018-09-26T07:23:38.064Z,3.27
2018-09-26T07:26:11.760Z,2.80
2018-09-26T07:28:42.496Z,4.23
2018-09-26T07:31:14.378Z,2.73
2018-09-26T07:33:44.844Z,3.07
2018-09-26T07:36:15.467Z,3.00
2018-09-26T07:38:46.204Z,2.60
2018-09-26T07:41:16.161Z,3.23
2018-09-26T07:43:48.445Z,3.30
2018-09-26T07:46:19.979Z,3.23
2018-09-26T07:48:50.154Z,2.30
2018-09-26T07:51:20.572Z,2.67
2018-09-26T07:53:54.298Z,2.10
2018-09-26T07:56:24.680Z,2.40
2018-09-26T07:58:56.647Z,2.43
2018-09-26T08:01:30.318Z,2.50
2018-09-26T08:04:03.136Z,2.53
2018-09-26T08:06:33.008Z,2.17
2018-09-26T08:09:03.237Z,2.60
2018-09-26T08:11:36.965Z,2.20
2018-09-26T08:14:07.742Z,2.40
2018-09-26T08:16:39.376Z,2.90
2018-09-26T08:19:10.208Z,1.97
2018-09-26T08:21:44.947Z,2.90
2018-09-26T08:24:19.012Z,1.90
2018-09-26T08:26:50.807Z,2.50
2018-09-26T08:29:23.730Z,2.20
2018-09-26T08:31:55.497Z,2.00
2018-09-26T08:34:27.516Z,2.23
2018-09-26T08:36:59.857Z,2.50
2018-09-26T08:39:30.968Z,2.40
2018-09-26T08:42:01.237Z,2.70
2018-09-26T08:44:33.239Z,2.33
2018-09-26T08:47:04.766Z,1.87
2018-09-26T08:49:37.624Z,2.00
2018-09-26T08:52:09.346Z,2.30
2018-09-26T08:54:39.982Z,2.07
2018-09-26T08:57:12.023Z,2.40
2018-09-26T08:59:46.569Z,2.33
2018-09-26T09:02:20.638Z,2.00
2018-09-26T09:04:52.412Z,2.70
2018-09-26T09:07:22.759Z,1.43
2018-09-26T09:09:54.194Z,1.87
2018-09-26T09:12:25.718Z,1.73
2018-09-26T09:15:00.998Z,2.00
2018-09-26T09:17:31.528Z,1.80
2018-09-26T09:20:08.211Z,2.23
2018-09-26T09:22:40.027Z,1.87
2018-09-26T09:25:12.999Z,1.83
2018-09-26T09:27:47.686Z,1.63
2018-09-26T09:30:18.665Z,1.80
2018-09-26T09:32:53.542Z,2.10
2018-09-26T09:35:25.258Z,2.30
2018-09-26T09:37:55.919Z,2.00
2018-09-26T09:40:26.457Z,2.10
2018-09-26T09:43:01.068Z,1.90
2018-09-26T09:45:33.025Z,1.87
2018-09-26T09:48:04.998Z,2.23
2018-09-26T09:50:36.819Z,2.37
2018-09-26T09:53:11.783Z,1.80
2018-09-26T09:55:47.413Z,1.90
2018-09-26T09:58:20.061Z,1.87
2018-09-26T10:00:59.537Z,1.90
2018-09-26T10:03:32.515Z,1.77
2018-09-26T10:06:03.602Z,2.20
2018-09-26T10:08:40.225Z,2.53
2018-09-26T10:11:12.113Z,2.33
2018-09-26T10:13:43.782Z,2.47
2018-09-26T10:16:16.605Z,2.30
2018-09-26T10:18:52.719Z,2.60
2018-09-26T10:21:25.682Z,2.30
2018-09-26T10:23:59.483Z,1.97
2018-09-26T10:26:34.403Z,1.80
2018-09-26T10:29:08.587Z,1.87
2018-09-26T10:31:39.577Z,2.20
2018-09-26T10:34:13.141Z,1.90
2018-09-26T10:36:45.242Z,1.80
2018-09-26T10:39:18.785Z,2.00
2018-09-26T10:41:53.473Z,2.00
2018-09-26T10:44:27.414Z,2.10
2018-09-26T10:46:58.955Z,2.20
2018-09-26T10:49:28.071Z,1.90
2018-09-26T10:52:00.122Z,2.13
2018-09-26T10:54:33.117Z,2.20
2018-09-26T10:57:04.880Z,2.47
2018-09-26T10:59:38.598Z,2.43
2018-09-26T11:02:12.547Z,2.50
2018-09-26T11:04:45.319Z,2.10
2018-09-26T11:07:18.081Z,2.00
2018-09-26T11:09:48.325Z,2.30
2018-09-26T11:12:22.831Z,2.20
2018-09-26T11:14:55.568Z,2.50
2018-09-26T11:17:24.947Z,2.30
2018-09-26T11:19:57.145Z,2.00
2018-09-26T11:22:29.224Z,2.53
2018-09-26T11:25:00.747Z,2.63
2018-09-26T11:27:36.796Z,2.23
2018-09-26T11:30:09.251Z,2.60
2018-09-26T11:32:42.184Z,2.60
2018-09-26T11:35:18.011Z,2.63
2018-09-26T11:37:50.716Z,2.40
2018-09-26T11:40:21.443Z,2.43
2018-09-26T11:42:53.037Z,3.03
2018-09-26T11:45:22.688Z,2.50
2018-09-26T11:47:55.671Z,2.87
2018-09-26T11:50:31.445Z,2.43
2018-09-26T11:53:05.248Z,2.40
2018-09-26T11:55:40.101Z,2.87
2018-09-26T11:58:11.793Z,2.80
2018-09-26T12:00:43.809Z,2.40
2018-09-26T12:03:16.512Z,2.87
2018-09-26T12:05:47.341Z,3.23
2018-09-26T12:08:18.531Z,2.83
2018-09-26T12:10:50.934Z,2.93
2018-09-26T12:13:25.855Z,3.10
2018-09-26T12:15:59.973Z,3.03
2018-09-26T12:18:30.643Z,2.63
2018-09-26T12:21:02.056Z,2.53
2018-09-26T12:23:32.159Z,2.70
2018-09-26T12:26:05.058Z,2.70
2018-09-26T12:28:35.030Z,2.83
2018-09-26T12:31:06.573Z,2.80
2018-09-26T12:33:38.331Z,3.43
2018-09-26T12:36:15.331Z,2.73
2018-09-26T12:38:46.909Z,3.17
2018-09-26T12:41:19.747Z,3.13
2018-09-26T12:43:49.333Z,2.90
2018-09-26T12:46:23.887Z,3.20
2018-09-26T12:48:55.700Z,3.03
2018-09-26T12:51:31.887Z,3.20
2018-09-26T12:54:02.006Z,3.07
2018-09-26T12:56:32.309Z,3.00
2018-09-26T12:59:07.412Z,3.20
2018-09-26T13:01:38.306Z,2.30
2018-09-26T13:04:10.926Z,2.70
2018-09-26T13:06:45.673Z,2.60
2018-09-26T13:09:17.646Z,2.83
